Big Bear Station Historical Data
Daily Summary for March 7, 2019 Units:  English    Metric   Both
Next Day »
Daily Weekly Monthly Yearly Custom
  High: Low: Average:
Temperature: 42.1 °F 26.8 °F 33.4 °F
Dew Point: 35.1 °F 25.3 °F 30.8 °F
Humidity: 98% 71% 90%
Wind Speed: 9.4mph 0.0mph 3.1mph
Wind Gust: -999.0mph - -
Wind- - SW
Pressure: 23.41 in 23.28 in -
Precipitation: 0.20 in    
Historical Graphs
 
 
Tabular Data for March 7, 2019
Time Temperature Dew Point Pressure Wind Wind Speed Wind Gust Humidity Rainfall Rate (Hourly)
00:04 34.2 °F 32.7 °F 23.39 in SE 4.7 mph -999.0 mph 94% 0.00 in
00:20 34.2 °F 32.7 °F 23.39 in West 1.7 mph -999.0 mph 94% 0.00 in
00:35 34.2 °F 32.9 °F 23.39 in NNW 4.2 mph -999.0 mph 95% 0.00 in
00:50 34.0 °F 33.0 °F 23.39 in West 3.2 mph -999.0 mph 96% 0.00 in
01:05 34.0 °F 33.0 °F 23.39 in SE 5.8 mph -999.0 mph 96% 0.00 in
01:20 33.8 °F 32.8 °F 23.39 in WNW 5.8 mph -999.0 mph 96% 0.00 in
01:36 33.6 °F 32.6 °F 23.39 in NNE 2.2 mph -999.0 mph 96% 0.00 in
01:51 33.4 °F 32.4 °F 23.39 in West 4.2 mph -999.0 mph 96% 0.00 in
02:06 33.3 °F 32.5 °F 23.39 in ENE 2.2 mph -999.0 mph 97% 0.00 in
02:21 33.3 °F 32.5 °F 23.38 in SSE 2.2 mph -999.0 mph 97% 0.00 in
02:36 33.3 °F 32.5 °F 23.38 in NNW 4.7 mph -999.0 mph 97% 0.00 in
02:52 33.3 °F 32.5 °F 23.38 in SSW 2.2 mph -999.0 mph 97% 0.00 in
03:07 33.3 °F 32.8 °F 23.37 in NNW 2.7 mph -999.0 mph 98% 0.00 in
03:22 33.3 °F 32.5 °F 23.37 in WSW 2.7 mph -999.0 mph 97% 0.00 in
03:37 33.3 °F 32.5 °F 23.37 in Calm   -999.0 mph 97% 0.00 in
03:53 32.9 °F 32.1 °F 23.37 in NNW 9.4 mph -999.0 mph 97% 0.00 in
04:09 32.9 °F 32.1 °F 23.37 in NNW 3.7 mph -999.0 mph 97% 0.00 in
04:24 33.1 °F 32.3 °F 23.37 in South 2.2 mph -999.0 mph 97% 0.00 in
04:39 33.3 °F 32.8 °F 23.37 in NW 3.2 mph -999.0 mph 98% 0.00 in
04:54 33.3 °F 32.8 °F 23.37 in WSW 1.1 mph -999.0 mph 98% 0.00 in
05:10 33.1 °F 32.6 °F 23.38 in West 1.7 mph -999.0 mph 98% 0.00 in
05:25 32.7 °F 32.2 °F 23.37 in SW 2.2 mph -999.0 mph 98% 0.00 in
05:40 32.5 °F 32.0 °F 23.37 in SW 3.7 mph -999.0 mph 98% 0.00 in
05:55 31.8 °F 31.0 °F 23.37 in SSE 2.7 mph -999.0 mph 97% 0.00 in
06:11 31.5 °F 30.5 °F 23.37 in ESE 3.2 mph -999.0 mph 96% 0.00 in
06:26 31.5 °F 30.2 °F 23.37 in South 3.2 mph -999.0 mph 95% 0.00 in
06:41 31.3 °F 30.0 °F 23.37 in Calm   -999.0 mph 95% 0.00 in
06:56 31.1 °F 29.8 °F 23.37 in Calm   -999.0 mph 95% 0.00 in
07:12 31.3 °F 29.5 °F 23.37 in WSW 5.3 mph -999.0 mph 93% 0.00 in
07:27 31.3 °F 29.8 °F 23.38 in NNW 3.7 mph -999.0 mph 94% 0.00 in
07:42 31.6 °F 30.3 °F 23.39 in NNW 5.3 mph -999.0 mph 95% 0.00 in
07:58 31.8 °F 30.5 °F 23.40 in NW 3.2 mph -999.0 mph 95% 0.00 in
08:13 32.0 °F 30.5 °F 23.40 in SW 4.7 mph -999.0 mph 94% 0.00 in
08:28 32.0 °F 30.2 °F 23.40 in SE 5.8 mph -999.0 mph 93% 0.00 in
08:43 32.5 °F 29.9 °F 23.41 in NW 8.3 mph -999.0 mph 90% 0.00 in
08:59 33.1 °F 30.5 °F 23.41 in WSW 5.8 mph -999.0 mph 90% 0.00 in
09:14 33.4 °F 30.5 °F 23.40 in SSE 2.7 mph -999.0 mph 89% 0.00 in
09:29 33.8 °F 30.6 °F 23.41 in NNE 6.3 mph -999.0 mph 88% 0.00 in
09:44 34.9 °F 31.7 °F 23.40 in West 3.7 mph -999.0 mph 88% 0.00 in
09:59 36.9 °F 31.9 °F 23.40 in NW 4.2 mph -999.0 mph 82% 0.00 in
10:15 37.6 °F 32.6 °F 23.41 in South 3.7 mph -999.0 mph 82% 0.00 in
10:30 38.8 °F 33.8 °F 23.40 in WNW 8.9 mph -999.0 mph 82% 0.00 in
10:46 39.7 °F 34.3 °F 23.40 in South 3.2 mph -999.0 mph 81% 0.00 in
11:01 40.5 °F 31.8 °F 23.41 in SW 4.2 mph -999.0 mph 71% 0.00 in
11:16 39.7 °F 32.4 °F 23.40 in NW 7.8 mph -999.0 mph 75% 0.00 in
11:31 40.1 °F 33.8 °F 23.40 in NNW 5.8 mph -999.0 mph 78% 0.00 in
11:46 41.0 °F 34.7 °F 23.40 in NE 3.7 mph -999.0 mph 78% 0.00 in
12:02 41.9 °F 34.6 °F 23.40 in SSE 4.2 mph -999.0 mph 75% 0.00 in
12:17 42.1 °F 35.1 °F 23.40 in East 2.2 mph -999.0 mph 76% 0.00 in
12:32 38.8 °F 33.2 °F 23.40 in SW 1.1 mph -999.0 mph 80% 0.00 in
12:48 40.5 °F 33.9 °F 23.40 in NW 3.7 mph -999.0 mph 77% 0.00 in
13:03 39.2 °F 33.6 °F 23.39 in North 3.2 mph -999.0 mph 80% 0.00 in
13:18 39.2 °F 33.6 °F 23.39 in SE 2.7 mph -999.0 mph 80% 0.00 in
13:34 37.9 °F 32.6 °F 23.38 in North 3.7 mph -999.0 mph 81% 0.00 in
13:49 38.5 °F 33.2 °F 23.37 in Calm   -999.0 mph 81% 0.00 in
14:04 37.2 °F 32.2 °F 23.35 in SSW 2.2 mph -999.0 mph 82% 0.00 in
14:20 38.1 °F 33.1 °F 23.35 in SE 2.7 mph -999.0 mph 82% 0.00 in
14:35 37.2 °F 32.8 °F 23.34 in NNW 2.2 mph -999.0 mph 84% 0.00 in
14:51 37.4 °F 32.1 °F 23.35 in SSW 2.7 mph -999.0 mph 81% 0.00 in
15:06 36.5 °F 31.8 °F 23.35 in WSW 2.7 mph -999.0 mph 83% 0.00 in
15:21 36.3 °F 31.9 °F 23.35 in South 1.1 mph -999.0 mph 84% 0.00 in
15:36 37.0 °F 32.3 °F 23.35 in NNW 2.7 mph -999.0 mph 83% 0.00 in
15:52 35.4 °F 31.3 °F 23.33 in ESE 4.2 mph -999.0 mph 85% 0.00 in
16:07 34.9 °F 31.7 °F 23.33 in Calm   -999.0 mph 88% 0.00 in
16:22 34.9 °F 31.7 °F 23.33 in West 3.2 mph -999.0 mph 88% 0.00 in
16:38 34.3 °F 30.8 °F 23.33 in SSE 4.7 mph -999.0 mph 87% 0.00 in
16:53 33.1 °F 30.5 °F 23.32 in WSW 2.7 mph -999.0 mph 90% 0.00 in
17:08 33.1 °F 30.5 °F 23.33 in Calm   -999.0 mph 90% 0.00 in
17:23 32.5 °F 29.6 °F 23.32 in SW 4.2 mph -999.0 mph 89% 0.00 in
17:39 32.2 °F 29.6 °F 23.32 in SSW 1.1 mph -999.0 mph 90% 0.00 in
17:54 31.8 °F 28.9 °F 23.32 in SSW 4.7 mph -999.0 mph 89% 0.00 in
18:09 31.5 °F 28.6 °F 23.32 in SW 3.2 mph -999.0 mph 89% 0.00 in
18:24 31.1 °F 28.2 °F 23.32 in South 4.2 mph -999.0 mph 89% 0.00 in
18:39 30.7 °F 28.1 °F 23.32 in ESE 1.1 mph -999.0 mph 90% 0.00 in
18:54 30.7 °F 28.1 °F 23.31 in SW 4.2 mph -999.0 mph 90% 0.00 in
19:10 30.2 °F 28.2 °F 23.31 in SSW 2.7 mph -999.0 mph 92% 0.00 in
19:25 30.2 °F 28.2 °F 23.31 in NNW 2.7 mph -999.0 mph 92% 0.00 in
19:40 30.0 °F 27.7 °F 23.31 in Calm   -999.0 mph 91% 0.00 in
19:55 29.8 °F 27.8 °F 23.31 in Calm   -999.0 mph 92% 0.00 in
20:11 29.5 °F 27.7 °F 23.32 in SSE 1.7 mph -999.0 mph 93% 0.00 in
20:26 29.7 °F 28.2 °F 23.31 in ESE 2.2 mph -999.0 mph 94% 0.00 in
20:41 29.5 °F 28.0 °F 23.31 in SSW 3.2 mph -999.0 mph 94% 0.00 in
20:56 29.5 °F 28.2 °F 23.30 in NNW 3.7 mph -999.0 mph 95% 0.00 in
21:12 29.5 °F 28.2 °F 23.30 in NW 4.7 mph -999.0 mph 95% 0.00 in
21:27 29.3 °F 28.0 °F 23.31 in Calm   -999.0 mph 95% 0.00 in
21:42 28.8 °F 27.3 °F 23.31 in NW 2.7 mph -999.0 mph 94% 0.00 in
21:57 28.4 °F 26.9 °F 23.31 in West 3.7 mph -999.0 mph 94% 0.00 in
22:13 28.2 °F 27.0 °F 23.31 in Calm   -999.0 mph 95% 0.00 in
22:28 28.0 °F 26.8 °F 23.31 in West 2.7 mph -999.0 mph 95% 0.00 in
22:43 27.5 °F 26.0 °F 23.30 in Calm   -999.0 mph 94% 0.00 in
22:58 27.5 °F 26.3 °F 23.30 in NW 2.2 mph -999.0 mph 95% 0.00 in
23:13 27.3 °F 26.1 °F 23.30 in WSW 1.7 mph -999.0 mph 95% 0.00 in
23:29 27.0 °F 25.8 °F 23.29 in Calm   -999.0 mph 95% 0.00 in
23:44 26.8 °F 25.3 °F 23.28 in Calm   -999.0 mph 94% 0.00 in
23:59 26.8 °F 25.3 °F 23.28 in South 2.7 mph -999.0 mph 94% 0.00 in
Big Bear CA Weather